avis per tempestes more information blitzortung!


avis per Pluja more information rain snow radar


Visita la nostra xarxa de llocs de meteo:

Template documentation
and downloads

And another site



Thunderstorms From: 18-09-2018 20:00 Until: 19-09-2018 10:59 warning for: Thunderstorms Level: Yellow info button
Rain From: 18-09-2018 20:00 Until: 19-09-2018 10:59 warning for: Rain Level: Yellow info button

Pagina Historial Weather Underground text

Diari Resum Juliol 11, 2017 Unitats:  Imperial    Mètric   Tant
« Previous Dia
SegĂźent Dia »
Diari Setmana Mensual Anual Personalitzada
  Maxima: Minima: Media:
Temperatura: TemperatureC °F 21.0 °F 27.5 °F
Punt de rosada: DewpointC °F 15.4 °F 18.6 °F
Humitat: Humidity % 46 % 59 %
Wind Speed: WindSpeedKMH mph 0.0 mph 8 mph
RĂ fegues de vent: WindSpeedGustKMH mph - -
Vent:- - SE
Pression baro: PressurehPa in 1010.7 in -
Precipitacions: 0.0 in    
Historical Graphs
 
 
Dades de taula per Juliol 11, 2017
Temps Temperatura Punt de rosada Pression baro Vent Wind Speed RĂ fegues de vent Humitat Rainfall Rate (Hourly)
TemperatureC °F DewpointC °F PressurehPa in Calm     Humidity % HourlyPrecipMM in
00:00 23.6 °F 15.4 °F 1013.8 in East 3.7 mph 3.7 mph 60 % 0.0 in
00:05 23.5 °F 15.6 °F 1013.8 in ESE 3.7 mph 3.7 mph 61 % 0.0 in
00:10 21.6 °F 17.6 °F 1013.8 in NE 3.2 mph 4.8 mph 78 % 0.0 in
00:20 21.6 °F 17.6 °F 1013.8 in NE 1.6 mph 4.8 mph 78 % 0.0 in
00:30 21.5 °F 17.5 °F 1013.8 in NE 3.2 mph 3.2 mph 78 % 0.0 in
00:40 21.4 °F 17.4 °F 1013.8 in Calm   4.8 mph 78 % 0.0 in
00:50 21.3 °F 17.3 °F 1013.8 in Calm   1.6 mph 78 % 0.0 in
01:00 21.2 °F 17.2 °F 1013.8 in Calm   1.6 mph 78 % 0.0 in
01:10 21.1 °F 17.1 °F 1013.8 in NE 1.6 mph   78 % 0.0 in
01:20 21.1 °F 17.3 °F 1013.8 in ENE 1.6 mph 3.2 mph 79 % 0.0 in
01:30 21.1 °F 17.1 °F 1013.8 in NE 1.6 mph 1.6 mph 78 % 0.0 in
01:40 21.1 °F 17.1 °F 1013.8 in Calm   1.6 mph 78 % 0.0 in
01:50 21.0 °F 17.0 °F 1013.8 in Calm   1.6 mph 78 % 0.0 in
02:00 21.1 °F 17.1 °F 1013.8 in NE 1.6 mph 3.2 mph 78 % 0.0 in
02:10 21.0 °F 17.0 °F 1013.8 in NE 3.2 mph 3.2 mph 78 % 0.0 in
02:20 21.1 °F 17.1 °F 1013.8 in NE 1.6 mph 3.2 mph 78 % 0.0 in
02:30 21.3 °F 17.3 °F 1012.8 in Calm     78 % 0.0 in
02:40 21.4 °F 17.2 °F 1012.8 in Calm     77 % 0.0 in
02:50 21.4 °F 17.0 °F 1012.8 in NE 1.6 mph 3.2 mph 76 % 0.0 in
03:00 22.0 °F 17.6 °F 1012.8 in Calm     76 % 0.0 in
03:10 22.4 °F 17.7 °F 1012.8 in NE 1.6 mph 1.6 mph 75 % 0.0 in
03:20 22.7 °F 17.8 °F 1013.8 in ENE 1.6 mph 1.6 mph 74 % 0.0 in
03:30 23.4 °F 18.3 °F 1013.8 in ESE 1.6 mph 3.2 mph 73 % 0.0 in
03:40 23.9 °F 18.6 °F 1013.8 in East 4.8 mph 4.8 mph 72 % 0.0 in
03:50 24.1 °F 18.1 °F 1013.8 in NE 1.6 mph 4.8 mph 69 % 0.0 in
04:00 24.1 °F 17.8 °F 1013.8 in NNE 3.2 mph 6.4 mph 68 % 0.0 in
04:10 24.1 °F 17.6 °F 1013.8 in NE 1.6 mph 6.4 mph 67 % 0.0 in
04:20 24.6 °F 18.3 °F 1013.8 in NE 1.6 mph 4.8 mph 68 % 0.0 in
04:30 23.9 °F 17.6 °F 1013.8 in Calm   6.4 mph 68 % 0.0 in
04:40 23.9 °F 17.6 °F 1013.8 in NNE 3.2 mph 4.8 mph 68 % 0.0 in
04:50 24.6 °F 18.1 °F 1013.8 in NNE 1.6 mph 3.2 mph 67 % 0.0 in
05:00 24.3 °F 17.6 °F 1013.8 in NNE 1.6 mph 4.8 mph 66 % 0.0 in
05:10 25.0 °F 17.7 °F 1013.8 in NE 1.6 mph 6.4 mph 64 % 0.0 in
05:20 25.6 °F 18.3 °F 1013.8 in NNE 1.6 mph 3.2 mph 64 % 0.0 in
10:27 26.1 °F 18.5 °F 1013.8 in SW 3.7 mph 3.7 mph 63 % 0.0 in
10:28 26.1 °F 18.5 °F 1013.8 in SSW 3.7 mph 3.7 mph 63 % 0.0 in
10:33 26.4 °F 18.6 °F 1013.8 in ENE 3.7 mph 3.7 mph 62 % 0.0 in
10:38 26.1 °F 18.2 °F 1013.8 in ENE 3.7 mph 3.7 mph 62 % 0.0 in
10:43 26.1 °F 18.2 °F 1013.8 in NE 3.7 mph 3.9 mph 62 % 0.0 in
10:48 25.8 °F 17.9 °F 1013.8 in ESE 3.7 mph 4.2 mph 62 % 0.0 in
10:53 26.2 °F 18.3 °F 1012.8 in SSE 3.7 mph 3.7 mph 62 % 0.0 in
10:58 27.2 °F 18.5 °F 1012.8 in SW 2.6 mph 2.6 mph 59 % 0.0 in
11:03 27.7 °F 18.7 °F 1012.8 in ESE 3.7 mph 3.7 mph 58 % 0.0 in
11:08 27.5 °F 18.5 °F 1012.8 in ENE 2.6 mph 2.6 mph 58 % 0.0 in
11:13 27.8 °F 18.8 °F 1012.8 in ESE 3.7 mph 3.7 mph 58 % 0.0 in
11:18 28.3 °F 18.7 °F 1012.8 in South 5.6 mph 5.6 mph 56 % 0.0 in
11:23 28.4 °F 18.5 °F 1013.8 in SSE 3.9 mph 3.9 mph 55 % 0.0 in
11:28 28.5 °F 18.9 °F 1013.8 in NE 5.6 mph 5.6 mph 56 % 0.0 in
11:33 27.8 °F 17.9 °F 1013.8 in NE 3.7 mph 3.7 mph 55 % 0.0 in
11:38 27.9 °F 18.3 °F 1013.8 in NW 4.7 mph 4.7 mph 56 % 0.0 in
11:43 28.5 °F 18.6 °F 1013.8 in SE 3.7 mph 3.7 mph 55 % 0.0 in
11:48 29.0 °F 18.4 °F 1013.8 in ENE 5.6 mph 5.6 mph 53 % 0.0 in
11:53 29.5 °F 18.9 °F 1013.8 in ESE 4.2 mph 4.2 mph 53 % 0.0 in
11:58 29.1 °F 17.9 °F 1013.8 in ESE 7.4 mph 7.4 mph 51 % 0.0 in
12:03 29.5 °F 18.3 °F 1013.8 in SSE 9.3 mph 9.3 mph 51 % 0.0 in
12:08 29.8 °F 18.6 °F 1013.8 in East 7.4 mph 7.4 mph 51 % 0.0 in
12:13 30.3 °F 19.3 °F 1013.8 in SE 5.6 mph 5.6 mph 52 % 0.0 in
12:18 30.6 °F 19.0 °F 1013.8 in East 5.3 mph 5.3 mph 50 % 0.0 in
12:23 30.2 °F 18.6 °F 1013.8 in SW 5.8 mph 5.8 mph 50 % 0.0 in
12:28 30.1 °F 18.2 °F 1013.8 in ESE 9.7 mph 9.7 mph 49 % 0.0 in
12:33 30.0 °F 18.1 °F 1013.8 in SSE 9.3 mph 9.3 mph 49 % 0.0 in
12:38 30.6 °F 18.3 °F 1013.8 in South 7.4 mph 7.4 mph 48 % 0.0 in
12:43 31.0 °F 18.7 °F 1013.8 in East 3.9 mph 3.9 mph 48 % 0.0 in
12:48 30.4 °F 18.2 °F 1013.8 in ESE 7.4 mph 7.4 mph 48 % 0.0 in
12:53 30.3 °F 18.4 °F 1013.8 in East 9.7 mph 9.7 mph 49 % 0.0 in
12:58 30.3 °F 18.1 °F 1013.8 in East 7.4 mph 7.4 mph 48 % 0.0 in
13:03 31.0 °F 18.4 °F 1013.8 in ESE 5.6 mph 5.6 mph 47 % 0.0 in
13:08 30.9 °F 18.9 °F 1012.8 in ESE 14.8 mph 14.8 mph 49 % 0.0 in
13:13 29.9 °F 18.1 °F 1012.8 in ESE 16.7 mph 16.7 mph 49 % 0.0 in
13:18 29.4 °F 17.9 °F 1012.8 in NNE 11.1 mph 11.1 mph 50 % 0.0 in
13:23 29.2 °F 18.0 °F 1012.8 in SE 14.8 mph 14.8 mph 51 % 0.0 in
13:28 29.1 °F 17.9 °F 1012.8 in SE 16.1 mph 16.1 mph 51 % 0.0 in
13:33 29.1 °F 17.9 °F 1012.8 in SE 18.5 mph 18.5 mph 51 % 0.0 in
13:38 29.1 °F 17.9 °F 1013.8 in East 16.1 mph 16.1 mph 51 % 0.0 in
13:43 29.2 °F 18.3 °F 1013.8 in ESE 14.8 mph 14.8 mph 52 % 0.0 in
13:48 29.2 °F 18.0 °F 1013.8 in NNE 9.3 mph 9.3 mph 51 % 0.0 in
13:53 29.1 °F 18.2 °F 1013.8 in ESE 13.0 mph 13.0 mph 52 % 0.0 in
13:58 29.3 °F 18.4 °F 1013.8 in East 16.7 mph 16.7 mph 52 % 0.0 in
14:03 29.9 °F 19.0 °F 1013.8 in ESE 9.0 mph 9.0 mph 52 % 0.0 in
14:08 29.6 °F 18.4 °F 1013.8 in East 14.8 mph 14.8 mph 51 % 0.0 in
14:13 29.9 °F 18.7 °F 1013.8 in ESE 9.3 mph 9.3 mph 51 % 0.0 in
14:18 29.4 °F 18.2 °F 1013.8 in ESE 17.2 mph 17.2 mph 51 % 0.0 in
14:23 29.5 °F 18.3 °F 1013.8 in ESE 16.7 mph 16.7 mph 51 % 0.0 in
14:28 29.7 °F 18.5 °F 1013.8 in East 13.0 mph 13.0 mph 51 % 0.0 in
14:33 29.8 °F 18.6 °F 1013.8 in ESE 14.8 mph 14.8 mph 51 % 0.0 in
14:38 29.7 °F 18.5 °F 1013.8 in ESE 14.8 mph 14.8 mph 51 % 0.0 in
14:43 29.8 °F 18.6 °F 1013.8 in ESE 13.0 mph 13.0 mph 51 % 0.0 in
14:48 29.6 °F 18.4 °F 1013.8 in ENE 14.8 mph 14.8 mph 51 % 0.0 in
14:53 29.6 °F 18.4 °F 1013.8 in SE 11.1 mph 11.1 mph 51 % 0.0 in
14:58 29.4 °F 18.2 °F 1013.8 in ESE 13.0 mph 13.0 mph 51 % 0.0 in
15:03 30.0 °F 18.8 °F 1013.8 in ENE 14.0 mph 14.0 mph 51 % 0.0 in
15:08 29.8 °F 18.6 °F 1012.8 in ESE 13.0 mph 13.0 mph 51 % 0.0 in
15:13 29.4 °F 18.5 °F 1012.8 in ESE 18.5 mph 18.5 mph 52 % 0.0 in
15:18 29.7 °F 18.8 °F 1012.8 in South 14.8 mph 14.8 mph 52 % 0.0 in
15:23 30.7 °F 19.7 °F 1012.8 in SE 9.3 mph 9.3 mph 52 % 0.0 in
15:28 30.7 °F 19.1 °F 1012.8 in South 5.6 mph 6.9 mph 50 % 0.0 in
15:33 30.5 °F 18.9 °F 1012.8 in ESE 22.2 mph 22.2 mph 50 % 0.0 in
15:38 30.5 °F 19.2 °F 1013.8 in SSE 11.9 mph 11.9 mph 51 % 0.0 in
15:43 29.8 °F 18.6 °F 1013.8 in ESE 18.5 mph 18.5 mph 51 % 0.0 in
15:48 30.2 °F 18.9 °F 1013.8 in East 10.3 mph 10.3 mph 51 % 0.0 in
15:53 30.4 °F 19.1 °F 1013.8 in East 9.3 mph 9.3 mph 51 % 0.0 in
15:58 30.9 °F 19.3 °F 1013.8 in ENE 7.4 mph 7.4 mph 50 % 0.0 in
16:03 31.4 °F 19.1 °F 1013.8 in ESE 10.3 mph 10.3 mph 48 % 0.0 in
16:08 30.5 °F 18.9 °F 1012.8 in East 12.6 mph 12.6 mph 50 % 0.0 in
16:13 30.4 °F 18.8 °F 1012.8 in South 11.1 mph 11.1 mph 50 % 0.0 in
16:18 31.3 °F 19.0 °F 1012.8 in East 13.0 mph 13.0 mph 48 % 0.0 in
16:23 31.6 °F 18.9 °F 1012.8 in South 5.8 mph 5.8 mph 47 % 0.0 in
16:28 31.0 °F 19.1 °F 1012.8 in South 5.6 mph 5.6 mph 49 % 0.0 in
16:33 31.3 °F 19.0 °F 1012.8 in ENE 5.6 mph 5.6 mph 48 % 0.0 in
16:38 30.7 °F 18.8 °F 1012.8 in South 11.1 mph 11.1 mph 49 % 0.0 in
16:43 31.2 °F 19.2 °F 1012.8 in East 7.4 mph 7.4 mph 49 % 0.0 in
16:48 31.4 °F 19.1 °F 1012.8 in South 9.3 mph 9.3 mph 48 % 0.0 in
16:53 31.5 °F 19.2 °F 1012.8 in South 7.4 mph 7.4 mph 48 % 0.0 in
16:58 31.6 °F 19.3 °F 1012.8 in SSE 9.0 mph 9.0 mph 48 % 0.0 in
17:03 31.5 °F 19.2 °F 1012.8 in ESE 9.3 mph 9.3 mph 48 % 0.0 in
17:08 31.5 °F 19.2 °F 1011.7 in South 16.7 mph 16.7 mph 48 % 0.0 in
17:13 31.4 °F 19.1 °F 1011.7 in East 11.1 mph 11.1 mph 48 % 0.0 in
17:18 31.8 °F 19.4 °F 1011.7 in SSE 7.4 mph 7.4 mph 48 % 0.0 in
17:23 32.7 °F 19.9 °F 1011.7 in WSW 10.0 mph 10.0 mph 47 % 0.0 in
17:28 32.6 °F 19.8 °F 1011.7 in NW 7.4 mph 7.4 mph 47 % 0.0 in
17:33 32.6 °F 19.5 °F 1011.7 in SSW 12.6 mph 12.6 mph 46 % 0.0 in
17:38 32.3 °F 19.2 °F 1011.7 in SSW 9.3 mph 9.3 mph 46 % 0.0 in
17:43 32.2 °F 19.1 °F 1011.7 in SSW 9.3 mph 9.3 mph 46 % 0.0 in
17:48 32.5 °F 19.4 °F 1011.7 in SW 9.5 mph 9.5 mph 46 % 0.0 in
17:53 31.8 °F 19.1 °F 1011.7 in SSW 14.8 mph 14.8 mph 47 % 0.0 in
17:58 31.9 °F 19.2 °F 1011.7 in WSW 11.1 mph 11.1 mph 47 % 0.0 in
18:03 31.8 °F 19.1 °F 1011.7 in SW 11.1 mph 11.1 mph 47 % 0.0 in
18:08 31.6 °F 18.9 °F 1011.7 in SSW 14.8 mph 14.8 mph 47 % 0.0 in
18:13 31.6 °F 18.9 °F 1011.7 in SW 15.6 mph 15.6 mph 47 % 0.0 in
18:18 31.3 °F 18.7 °F 1011.7 in SSE 13.0 mph 13.0 mph 47 % 0.0 in
18:23 31.3 °F 19.0 °F 1011.7 in SSW 18.5 mph 18.5 mph 48 % 0.0 in
18:25 31.0 °F 18.7 °F 1011.7 in SW 14.8 mph 14.8 mph 48 % 0.0 in
18:30 31.0 °F 18.7 °F 1011.7 in WSW 5.6 mph 5.6 mph 48 % 0.0 in
18:35 31.1 °F 18.8 °F 1011.7 in SSW 14.8 mph 14.8 mph 48 % 0.0 in
18:36 31.1 °F 18.8 °F 1011.7 in SW 14.8 mph 14.8 mph 48 % 0.0 in
18:41 30.7 °F 18.8 °F 1011.7 in SW 14.8 mph 14.8 mph 49 % 0.0 in
18:46 30.7 °F 19.1 °F 1011.7 in SW 7.4 mph 7.4 mph 50 % 0.0 in
18:51 30.6 °F 19.0 °F 1011.7 in SW 16.7 mph 16.7 mph 50 % 0.0 in
18:56 30.0 °F 18.4 °F 1011.7 in SSW 14.8 mph 14.8 mph 50 % 0.0 in
19:01 30.4 °F 18.8 °F 1011.7 in SW 9.0 mph 9.0 mph 50 % 0.0 in
19:06 30.2 °F 18.9 °F 1011.7 in SW 13.0 mph 13.0 mph 51 % 0.0 in
19:11 30.2 °F 18.9 °F 1011.7 in WSW 13.0 mph 13.0 mph 51 % 0.0 in
19:16 30.2 °F 18.9 °F 1011.7 in SW 9.3 mph 9.3 mph 51 % 0.0 in
19:21 29.7 °F 18.8 °F 1011.7 in SW 13.0 mph 13.0 mph 52 % 0.0 in
19:26 29.5 °F 18.6 °F 1011.7 in SW 7.4 mph 7.4 mph 52 % 0.0 in
19:31 29.3 °F 18.7 °F 1011.7 in SSW 13.0 mph 13.0 mph 53 % 0.0 in
19:36 29.0 °F 18.8 °F 1011.7 in WSW 9.3 mph 9.3 mph 54 % 0.0 in
19:41 29.0 °F 18.8 °F 1011.7 in SSW 9.3 mph 9.3 mph 54 % 0.0 in
19:46 28.7 °F 19.1 °F 1011.7 in SW 10.0 mph 10.0 mph 56 % 0.0 in
19:51 28.5 °F 18.9 °F 1011.7 in SSW 9.3 mph 9.3 mph 56 % 0.0 in
19:56 28.4 °F 19.1 °F 1011.7 in WSW 13.0 mph 13.0 mph 57 % 0.0 in
20:01 28.3 °F 18.9 °F 1011.7 in SW 9.3 mph 9.3 mph 57 % 0.0 in
20:06 28.2 °F 19.2 °F 1011.7 in SW 13.0 mph 13.0 mph 58 % 0.0 in
20:11 28.1 °F 19.3 °F 1010.7 in WSW 11.1 mph 11.1 mph 59 % 0.0 in
20:16 27.8 °F 19.1 °F 1010.7 in West 13.0 mph 13.0 mph 59 % 0.0 in
20:21 27.7 °F 19.2 °F 1010.7 in WSW 9.3 mph 9.3 mph 60 % 0.0 in
20:26 27.5 °F 19.3 °F 1011.7 in South 7.4 mph 7.4 mph 61 % 0.0 in
20:31 27.4 °F 19.2 °F 1011.7 in WSW 13.0 mph 13.0 mph 61 % 0.0 in
20:36 27.1 °F 19.2 °F 1011.7 in SSW 7.4 mph 7.4 mph 62 % 0.0 in
20:41 27.0 °F 19.1 °F 1011.7 in South 11.1 mph 11.1 mph 62 % 0.0 in
20:46 26.9 °F 19.3 °F 1011.7 in SW 5.3 mph 5.3 mph 63 % 0.0 in
20:51 26.6 °F 19.2 °F 1011.7 in SW 7.4 mph 7.4 mph 64 % 0.0 in
20:56 26.5 °F 19.4 °F 1011.7 in WSW 7.4 mph 7.4 mph 65 % 0.0 in
21:01 26.4 °F 19.3 °F 1011.7 in WSW 5.6 mph 5.6 mph 65 % 0.0 in
21:06 26.3 °F 19.2 °F 1011.7 in WSW 6.9 mph 6.9 mph 65 % 0.0 in
21:11 26.2 °F 19.1 °F 1012.8 in SSE 3.7 mph 3.7 mph 65 % 0.0 in
21:16 26.0 °F 19.2 °F 1012.8 in WSW 3.5 mph   66 % 0.0 in
21:21 25.9 °F 19.1 °F 1012.8 in SW 4.2 mph 4.2 mph 66 % 0.0 in
21:26 25.8 °F 18.9 °F 1012.8 in WSW 3.9 mph 3.9 mph 66 % 0.0 in
21:31 25.7 °F 18.9 °F 1012.8 in SW 5.6 mph 5.6 mph 66 % 0.0 in
21:36 25.6 °F 19.3 °F 1012.8 in WSW 3.7 mph   68 % 0.0 in
21:41 25.6 °F 19.3 °F 1013.8 in Calm     68 % 0.0 in
21:46 25.5 °F 19.2 °F 1013.8 in ESE 2.3 mph   68 % 0.0 in
21:51 25.4 °F 19.3 °F 1013.8 in ENE 2.6 mph 2.6 mph 69 % 0.0 in
21:56 25.3 °F 19.2 °F 1013.8 in ENE 1.9 mph   69 % 0.0 in
22:01 25.3 °F 19.4 °F 1013.8 in Calm     70 % 0.0 in
22:06 25.3 °F 19.4 °F 1013.8 in ESE 6.9 mph 6.9 mph 70 % 0.0 in
22:11 25.1 °F 19.4 °F 1013.8 in ESE 6.9 mph 6.9 mph 71 % 0.0 in
22:16 24.9 °F 19.7 °F 1013.8 in ENE 13.0 mph 13.0 mph 73 % 0.0 in
22:21 24.8 °F 19.8 °F 1013.8 in ESE 9.3 mph 9.3 mph 74 % 0.0 in
22:26 24.7 °F 19.8 °F 1014.8 in SE 9.3 mph 9.3 mph 74 % 0.0 in
22:31 24.6 °F 19.9 °F 1014.8 in East 7.4 mph 7.4 mph 75 % 0.0 in
22:36 24.6 °F 19.9 °F 1014.8 in East 11.1 mph 11.1 mph 75 % 0.0 in
22:41 24.5 °F 20.0 °F 1014.8 in ESE 7.4 mph 7.4 mph 76 % 0.0 in
22:46 24.5 °F 20.0 °F 1014.8 in ESE 11.1 mph 11.1 mph 76 % 0.0 in
22:51 24.5 °F 20.0 °F 1014.8 in East 5.6 mph 5.6 mph 76 % 0.0 in
22:56 24.4 °F 20.1 °F 1014.8 in ENE 5.6 mph 5.6 mph 77 % 0.0 in
23:01 24.4 °F 20.1 °F 1014.8 in ESE 7.4 mph 7.4 mph 77 % 0.0 in
23:06 24.4 °F 20.1 °F 1014.8 in ENE 9.3 mph 9.3 mph 77 % 0.0 in
23:11 24.4 °F 20.1 °F 1014.8 in ENE 11.1 mph 11.1 mph 77 % 0.0 in
23:16 24.3 °F 20.2 °F 1014.8 in NNE 11.4 mph 11.4 mph 78 % 0.0 in
23:21 24.3 °F 20.0 °F 1014.8 in ENE 9.3 mph 9.3 mph 77 % 0.0 in
23:26 24.2 °F 20.1 °F 1014.8 in NE 7.4 mph 7.4 mph 78 % 0.0 in
23:31 24.2 °F 20.1 °F 1014.8 in ESE 7.4 mph 7.4 mph 78 % 0.0 in
23:36 24.2 °F 20.3 °F 1014.8 in ESE 7.4 mph 7.4 mph 79 % 0.0 in
23:41 24.2 °F 20.3 °F 1015.8 in ENE 5.6 mph 5.6 mph 79 % 0.0 in
23:46 24.2 °F 20.3 °F 1015.8 in East 5.6 mph 5.6 mph 79 % 0.0 in
23:51 24.2 °F 20.3 °F 1015.8 in East 9.3 mph 9.3 mph 79 % 0.0 in
23:56 24.1 °F 20.4 °F 1015.8 in ENE 9.3 mph 9.3 mph 80 % 0.0 in
Meteo Sesrovires
Elogis d' Weather Underground - 1.5 mb

Guio original per  Jim McMurry - jmcmurry@mwt.net Adaptat per a la plantilla per  Wim van der Kuil - Leuven-Template.eu

Trobareu la nostra informacio del temps tambe a:

Weather Underground

AWEKAS